sensor_id;sensor_type;location;lat;lon;timestamp;temperature;humidity
69595;DHT22;56800;52.142;5.364;2022-12-18T00:01:29;-2.30;81.40
69595;DHT22;56800;52.142;5.364;2022-12-18T00:03:57;-2.30;81.40
69595;DHT22;56800;52.142;5.364;2022-12-18T00:06:26;-2.30;81.50
69595;DHT22;56800;52.142;5.364;2022-12-18T00:08:54;-2.30;81.50
69595;DHT22;56800;52.142;5.364;2022-12-18T00:11:23;-2.30;81.60
69595;DHT22;56800;52.142;5.364;2022-12-18T00:13:50;-2.30;81.50
69595;DHT22;56800;52.142;5.364;2022-12-18T00:16:21;-2.30;81.50
69595;DHT22;56800;52.142;5.364;2022-12-18T00:18:49;-2.30;81.40
69595;DHT22;56800;52.142;5.364;2022-12-18T00:21:17;-2.30;81.40
69595;DHT22;56800;52.142;5.364;2022-12-18T00:23:44;-2.40;81.40
69595;DHT22;56800;52.142;5.364;2022-12-18T00:26:17;-2.40;81.40
69595;DHT22;56800;52.142;5.364;2022-12-18T00:28:45;-2.30;81.50
69595;DHT22;56800;52.142;5.364;2022-12-18T00:31:14;-2.30;82.40
69595;DHT22;56800;52.142;5.364;2022-12-18T00:33:42;-2.30;82.30
69595;DHT22;56800;52.142;5.364;2022-12-18T00:36:11;-2.30;81.30
69595;DHT22;56800;52.142;5.364;2022-12-18T00:38:38;-2.40;81.30
69595;DHT22;56800;52.142;5.364;2022-12-18T00:41:07;-2.40;81.50
69595;DHT22;56800;52.142;5.364;2022-12-18T00:43:34;-2.40;81.60
69595;DHT22;56800;52.142;5.364;2022-12-18T00:46:01;-2.40;81.60
69595;DHT22;56800;52.142;5.364;2022-12-18T00:48:28;-2.40;81.50
69595;DHT22;56800;52.142;5.364;2022-12-18T00:50:55;-2.40;81.50
69595;DHT22;56800;52.142;5.364;2022-12-18T00:53:22;-2.40;81.50
69595;DHT22;56800;52.142;5.364;2022-12-18T00:55:48;-2.50;81.30
69595;DHT22;56800;52.142;5.364;2022-12-18T00:58:16;-2.50;81.30
69595;DHT22;56800;52.142;5.364;2022-12-18T01:00:43;-2.50;81.40
69595;DHT22;56800;52.142;5.364;2022-12-18T01:03:13;-2.50;81.40
69595;DHT22;56800;52.142;5.364;2022-12-18T01:05:41;-2.50;81.30
69595;DHT22;56800;52.142;5.364;2022-12-18T01:08:07;-2.50;81.40
69595;DHT22;56800;52.142;5.364;2022-12-18T01:10:34;-2.60;81.50
69595;DHT22;56800;52.142;5.364;2022-12-18T01:13:01;-2.60;81.50
69595;DHT22;56800;52.142;5.364;2022-12-18T01:15:27;-2.60;81.40
69595;DHT22;56800;52.142;5.364;2022-12-18T01:17:54;-2.60;81.40
69595;DHT22;56800;52.142;5.364;2022-12-18T01:20:20;-2.60;81.60
69595;DHT22;56800;52.142;5.364;2022-12-18T01:22:47;-2.60;81.60
69595;DHT22;56800;52.142;5.364;2022-12-18T01:25:14;-2.60;81.60
69595;DHT22;56800;52.142;5.364;2022-12-18T01:27:40;-2.60;81.50
69595;DHT22;56800;52.142;5.364;2022-12-18T01:30:07;-2.60;81.40
69595;DHT22;56800;52.142;5.364;2022-12-18T01:32:34;-2.60;81.30
69595;DHT22;56800;52.142;5.364;2022-12-18T01:35:01;-2.60;81.30
69595;DHT22;56800;52.142;5.364;2022-12-18T01:37:28;-2.60;81.40
69595;DHT22;56800;52.142;5.364;2022-12-18T01:39:54;-2.60;81.30
69595;DHT22;56800;52.142;5.364;2022-12-18T01:42:22;-2.60;81.40
69595;DHT22;56800;52.142;5.364;2022-12-18T01:47:47;-2.60;81.30
69595;DHT22;56800;52.142;5.364;2022-12-18T01:50:23;-2.60;81.10
69595;DHT22;56800;52.142;5.364;2022-12-18T01:52:58;-2.60;81.20
69595;DHT22;56800;52.142;5.364;2022-12-18T01:55:28;-2.60;81.20
69595;DHT22;56800;52.142;5.364;2022-12-18T01:57:58;-2.60;81.10
69595;DHT22;56800;52.142;5.364;2022-12-18T02:00:26;-2.60;81.10
69595;DHT22;56800;52.142;5.364;2022-12-18T02:02:53;-2.60;81.10
69595;DHT22;56800;52.142;5.364;2022-12-18T02:05:50;-2.60;81.10
69595;DHT22;56800;52.142;5.364;2022-12-18T02:13:56;-2.70;81.00
69595;DHT22;56800;52.142;5.364;2022-12-18T02:16:49;-2.70;81.00
69595;DHT22;56800;52.142;5.364;2022-12-18T02:25:25;-2.80;80.80
69595;DHT22;56800;52.142;5.364;2022-12-18T02:27:59;-2.80;80.80
69595;DHT22;56800;52.142;5.364;2022-12-18T02:30:30;-2.80;80.70
69595;DHT22;56800;52.142;5.364;2022-12-18T02:32:59;-2.90;80.60
69595;DHT22;56800;52.142;5.364;2022-12-18T02:35:29;-2.90;80.60
69595;DHT22;56800;52.142;5.364;2022-12-18T02:37:57;-2.90;80.70
69595;DHT22;56800;52.142;5.364;2022-12-18T02:40:26;-2.90;80.60
69595;DHT22;56800;52.142;5.364;2022-12-18T02:42:53;-2.90;80.60
69595;DHT22;56800;52.142;5.364;2022-12-18T02:45:20;-3.00;80.60
69595;DHT22;56800;52.142;5.364;2022-12-18T02:47:49;-3.00;80.60
69595;DHT22;56800;52.142;5.364;2022-12-18T02:53:04;-3.00;80.50
69595;DHT22;56800;52.142;5.364;2022-12-18T02:58:17;-3.10;80.30
69595;DHT22;56800;52.142;5.364;2022-12-18T03:00:52;-3.10;80.40
69595;DHT22;56800;52.142;5.364;2022-12-18T03:03:27;-3.20;80.20
69595;DHT22;56800;52.142;5.364;2022-12-18T03:06:10;-3.20;80.20
69595;DHT22;56800;52.142;5.364;2022-12-18T03:08:43;-3.20;80.20
69595;DHT22;56800;52.142;5.364;2022-12-18T03:11:12;-3.30;80.00
69595;DHT22;56800;52.142;5.364;2022-12-18T03:13:48;-3.30;79.90
69595;DHT22;56800;52.142;5.364;2022-12-18T03:16:25;-3.30;80.00
69595;DHT22;56800;52.142;5.364;2022-12-18T03:18:57;-3.30;80.00
69595;DHT22;56800;52.142;5.364;2022-12-18T03:21:32;-3.40;79.90
69595;DHT22;56800;52.142;5.364;2022-12-18T03:24:00;-3.40;79.90
69595;DHT22;56800;52.142;5.364;2022-12-18T03:26:30;-3.40;80.00
69595;DHT22;56800;52.142;5.364;2022-12-18T03:29:04;-3.50;79.90
69595;DHT22;56800;52.142;5.364;2022-12-18T03:31:40;-3.50;79.70
69595;DHT22;56800;52.142;5.364;2022-12-18T03:34:23;-3.50;79.80
69595;DHT22;56800;52.142;5.364;2022-12-18T03:36:51;-3.60;79.60
69595;DHT22;56800;52.142;5.364;2022-12-18T03:39:19;-3.60;79.60
69595;DHT22;56800;52.142;5.364;2022-12-18T03:41:53;-3.60;79.50
69595;DHT22;56800;52.142;5.364;2022-12-18T03:44:30;-3.60;79.50
69595;DHT22;56800;52.142;5.364;2022-12-18T03:49:47;-3.70;79.50
69595;DHT22;56800;52.142;5.364;2022-12-18T03:52:30;-3.70;79.40
69595;DHT22;56800;52.142;5.364;2022-12-18T03:54:59;-3.80;79.30
69595;DHT22;56800;52.142;5.364;2022-12-18T03:57:29;-3.80;79.50
69595;DHT22;56800;52.142;5.364;2022-12-18T04:00:02;-3.80;79.60
69595;DHT22;56800;52.142;5.364;2022-12-18T04:02:30;-3.80;79.60
69595;DHT22;56800;52.142;5.364;2022-12-18T04:05:00;-3.90;79.50
69595;DHT22;56800;52.142;5.364;2022-12-18T04:07:28;-3.80;79.60
69595;DHT22;56800;52.142;5.364;2022-12-18T04:09:56;-3.90;79.50
69595;DHT22;56800;52.142;5.364;2022-12-18T04:12:25;-3.90;79.50
69595;DHT22;56800;52.142;5.364;2022-12-18T04:14:52;-3.90;79.40
69595;DHT22;56800;52.142;5.364;2022-12-18T04:17:19;-3.90;79.40
69595;DHT22;56800;52.142;5.364;2022-12-18T04:19:46;-3.90;79.40
69595;DHT22;56800;52.142;5.364;2022-12-18T04:22:13;-4.00;79.40
69595;DHT22;56800;52.142;5.364;2022-12-18T04:24:39;-4.00;79.40
69595;DHT22;56800;52.142;5.364;2022-12-18T04:27:06;-4.00;79.40
69595;DHT22;56800;52.142;5.364;2022-12-18T04:29:33;-4.00;79.30
69595;DHT22;56800;52.142;5.364;2022-12-18T04:32:00;-4.00;79.40
69595;DHT22;56800;52.142;5.364;2022-12-18T04:34:27;-4.00;79.30
69595;DHT22;56800;52.142;5.364;2022-12-18T04:36:53;-4.10;79.20
69595;DHT22;56800;52.142;5.364;2022-12-18T04:39:20;-4.10;79.20
69595;DHT22;56800;52.142;5.364;2022-12-18T04:41:46;-4.20;79.20
69595;DHT22;56800;52.142;5.364;2022-12-18T04:44:13;-4.20;79.20
69595;DHT22;56800;52.142;5.364;2022-12-18T04:46:40;-4.20;79.20
69595;DHT22;56800;52.142;5.364;2022-12-18T04:49:07;-4.20;79.30
69595;DHT22;56800;52.142;5.364;2022-12-18T04:51:33;-4.20;79.30
69595;DHT22;56800;52.142;5.364;2022-12-18T04:54:00;-4.20;79.30
69595;DHT22;56800;52.142;5.364;2022-12-18T04:56:27;-4.20;79.30
69595;DHT22;56800;52.142;5.364;2022-12-18T04:58:53;-4.20;79.40
69595;DHT22;56800;52.142;5.364;2022-12-18T05:01:20;-4.20;79.30
69595;DHT22;56800;52.142;5.364;2022-12-18T05:03:47;-4.30;79.20
69595;DHT22;56800;52.142;5.364;2022-12-18T05:06:14;-4.30;79.20
69595;DHT22;56800;52.142;5.364;2022-12-18T05:08:41;-4.30;79.30
69595;DHT22;56800;52.142;5.364;2022-12-18T05:11:10;-4.30;79.30
69595;DHT22;56800;52.142;5.364;2022-12-18T05:13:37;-4.40;79.30
69595;DHT22;56800;52.142;5.364;2022-12-18T05:16:05;-4.30;79.30
69595;DHT22;56800;52.142;5.364;2022-12-18T05:18:33;-4.40;79.20
69595;DHT22;56800;52.142;5.364;2022-12-18T05:21:00;-4.40;79.20
69595;DHT22;56800;52.142;5.364;2022-12-18T05:23:27;-4.40;79.20
69595;DHT22;56800;52.142;5.364;2022-12-18T05:26:02;-4.40;79.20
69595;DHT22;56800;52.142;5.364;2022-12-18T05:28:30;-4.40;79.20
69595;DHT22;56800;52.142;5.364;2022-12-18T05:30:59;-4.40;79.20
69595;DHT22;56800;52.142;5.364;2022-12-18T05:33:30;-4.40;79.20
69595;DHT22;56800;52.142;5.364;2022-12-18T05:36:02;-4.50;79.20
69595;DHT22;56800;52.142;5.364;2022-12-18T05:38:30;-4.50;79.30
69595;DHT22;56800;52.142;5.364;2022-12-18T05:40:57;-4.50;79.20
69595;DHT22;56800;52.142;5.364;2022-12-18T05:43:25;-4.50;79.20
69595;DHT22;56800;52.142;5.364;2022-12-18T05:45:53;-4.50;79.10
69595;DHT22;56800;52.142;5.364;2022-12-18T05:48:20;-4.50;79.10
69595;DHT22;56800;52.142;5.364;2022-12-18T05:50:49;-4.50;79.00
69595;DHT22;56800;52.142;5.364;2022-12-18T05:53:18;-4.50;79.00
69595;DHT22;56800;52.142;5.364;2022-12-18T05:55:46;-4.60;79.00
69595;DHT22;56800;52.142;5.364;2022-12-18T05:58:14;-4.60;78.90
69595;DHT22;56800;52.142;5.364;2022-12-18T06:00:45;-4.60;79.00
69595;DHT22;56800;52.142;5.364;2022-12-18T06:03:12;-4.60;79.00
69595;DHT22;56800;52.142;5.364;2022-12-18T06:05:42;-4.60;79.00
69595;DHT22;56800;52.142;5.364;2022-12-18T06:08:09;-4.60;79.00
69595;DHT22;56800;52.142;5.364;2022-12-18T06:10:37;-4.60;79.10
69595;DHT22;56800;52.142;5.364;2022-12-18T06:13:04;-4.60;79.00
69595;DHT22;56800;52.142;5.364;2022-12-18T06:15:31;-4.60;79.00
69595;DHT22;56800;52.142;5.364;2022-12-18T06:17:59;-4.60;79.00
69595;DHT22;56800;52.142;5.364;2022-12-18T06:20:26;-4.60;79.00
69595;DHT22;56800;52.142;5.364;2022-12-18T06:22:59;-4.60;79.00
69595;DHT22;56800;52.142;5.364;2022-12-18T06:25:25;-4.60;79.10
69595;DHT22;56800;52.142;5.364;2022-12-18T06:27:52;-4.60;79.00
69595;DHT22;56800;52.142;5.364;2022-12-18T06:30:19;-4.60;79.10
69595;DHT22;56800;52.142;5.364;2022-12-18T06:32:46;-4.60;79.10
69595;DHT22;56800;52.142;5.364;2022-12-18T06:35:22;-4.60;79.10
69595;DHT22;56800;52.142;5.364;2022-12-18T06:37:48;-4.70;78.90
69595;DHT22;56800;52.142;5.364;2022-12-18T06:40:16;-4.70;78.90
69595;DHT22;56800;52.142;5.364;2022-12-18T06:42:42;-4.70;78.90
69595;DHT22;56800;52.142;5.364;2022-12-18T06:45:09;-4.70;78.90
69595;DHT22;56800;52.142;5.364;2022-12-18T06:47:36;-4.70;79.10
69595;DHT22;56800;52.142;5.364;2022-12-18T06:50:03;-4.70;79.10
69595;DHT22;56800;52.142;5.364;2022-12-18T06:52:32;-4.70;79.10
69595;DHT22;56800;52.142;5.364;2022-12-18T06:55:00;-4.70;79.20
69595;DHT22;56800;52.142;5.364;2022-12-18T06:57:26;-4.70;79.20
69595;DHT22;56800;52.142;5.364;2022-12-18T06:59:53;-4.70;79.20
69595;DHT22;56800;52.142;5.364;2022-12-18T07:02:20;-4.70;79.10
69595;DHT22;56800;52.142;5.364;2022-12-18T07:04:49;-4.70;79.10
69595;DHT22;56800;52.142;5.364;2022-12-18T07:07:16;-4.70;79.00
69595;DHT22;56800;52.142;5.364;2022-12-18T07:09:43;-4.70;79.00
69595;DHT22;56800;52.142;5.364;2022-12-18T07:12:10;-4.70;79.00
69595;DHT22;56800;52.142;5.364;2022-12-18T07:14:36;-4.70;78.90
69595;DHT22;56800;52.142;5.364;2022-12-18T07:17:03;-4.70;78.90
69595;DHT22;56800;52.142;5.364;2022-12-18T07:19:31;-4.70;78.90
69595;DHT22;56800;52.142;5.364;2022-12-18T07:21:58;-4.70;78.90
69595;DHT22;56800;52.142;5.364;2022-12-18T07:24:25;-4.70;78.90
69595;DHT22;56800;52.142;5.364;2022-12-18T07:26:51;-4.70;78.90
69595;DHT22;56800;52.142;5.364;2022-12-18T07:29:18;-4.70;78.90
69595;DHT22;56800;52.142;5.364;2022-12-18T07:31:44;-4.80;78.80
69595;DHT22;56800;52.142;5.364;2022-12-18T07:34:12;-4.70;79.00
69595;DHT22;56800;52.142;5.364;2022-12-18T07:36:39;-4.70;79.00
69595;DHT22;56800;52.142;5.364;2022-12-18T07:39:06;-4.70;78.90
69595;DHT22;56800;52.142;5.364;2022-12-18T07:41:33;-4.70;78.90
69595;DHT22;56800;52.142;5.364;2022-12-18T07:44:00;-4.70;78.90
69595;DHT22;56800;52.142;5.364;2022-12-18T07:46:26;-4.70;78.90
69595;DHT22;56800;52.142;5.364;2022-12-18T07:48:53;-4.70;79.00
69595;DHT22;56800;52.142;5.364;2022-12-18T07:51:21;-4.70;78.90
69595;DHT22;56800;52.142;5.364;2022-12-18T07:54:24;-4.70;78.90
69595;DHT22;56800;52.142;5.364;2022-12-18T07:56:51;-4.70;78.90
69595;DHT22;56800;52.142;5.364;2022-12-18T07:59:18;-4.70;78.90
69595;DHT22;56800;52.142;5.364;2022-12-18T08:01:45;-4.70;78.90
69595;DHT22;56800;52.142;5.364;2022-12-18T08:04:13;-4.70;79.00
69595;DHT22;56800;52.142;5.364;2022-12-18T08:06:46;-4.70;79.00
69595;DHT22;56800;52.142;5.364;2022-12-18T08:09:48;-4.60;79.10
69595;DHT22;56800;52.142;5.364;2022-12-18T08:12:50;-4.60;79.10
69595;DHT22;56800;52.142;5.364;2022-12-18T08:16:00;-4.60;79.10
69595;DHT22;56800;52.142;5.364;2022-12-18T08:18:32;-4.50;79.20
69595;DHT22;56800;52.142;5.364;2022-12-18T08:21:35;-4.50;79.10
69595;DHT22;56800;52.142;5.364;2022-12-18T08:24:11;-4.50;79.20
69595;DHT22;56800;52.142;5.364;2022-12-18T08:26:59;-4.40;79.30
69595;DHT22;56800;52.142;5.364;2022-12-18T08:29:56;-4.40;79.40
69595;DHT22;56800;52.142;5.364;2022-12-18T08:32:36;-4.30;79.50
69595;DHT22;56800;52.142;5.364;2022-12-18T08:35:13;-4.30;79.40
69595;DHT22;56800;52.142;5.364;2022-12-18T08:38:48;-4.20;79.50
69595;DHT22;56800;52.142;5.364;2022-12-18T08:42:29;-4.20;79.40
69595;DHT22;56800;52.142;5.364;2022-12-18T08:46:06;-4.10;79.40
69595;DHT22;56800;52.142;5.364;2022-12-18T08:49:38;-4.10;79.40
69595;DHT22;56800;52.142;5.364;2022-12-18T08:52:52;-4.00;79.50
69595;DHT22;56800;52.142;5.364;2022-12-18T09:00:23;-3.80;79.80
69595;DHT22;56800;52.142;5.364;2022-12-18T09:03:43;-3.70;79.80
69595;DHT22;56800;52.142;5.364;2022-12-18T09:06:27;-3.60;80.50
69595;DHT22;56800;52.142;5.364;2022-12-18T09:09:44;-3.50;79.80
69595;DHT22;56800;52.142;5.364;2022-12-18T09:16:35;-3.30;79.60
69595;DHT22;56800;52.142;5.364;2022-12-18T09:19:43;-3.20;79.60
69595;DHT22;56800;52.142;5.364;2022-12-18T09:22:41;-3.20;79.60
69595;DHT22;56800;52.142;5.364;2022-12-18T09:30:04;-3.00;79.60
69595;DHT22;56800;52.142;5.364;2022-12-18T09:36:43;-2.90;79.60
69595;DHT22;56800;52.142;5.364;2022-12-18T09:39:59;-2.80;79.80
69595;DHT22;56800;52.142;5.364;2022-12-18T09:43:35;-2.70;79.70
69595;DHT22;56800;52.142;5.364;2022-12-18T09:47:27;-2.70;79.70
69595;DHT22;56800;52.142;5.364;2022-12-18T09:51:30;-2.60;79.60
69595;DHT22;56800;52.142;5.364;2022-12-18T09:55:24;-2.50;79.60
69595;DHT22;56800;52.142;5.364;2022-12-18T09:58:58;-2.40;79.70
69595;DHT22;56800;52.142;5.364;2022-12-18T10:01:27;-2.40;79.70
69595;DHT22;56800;52.142;5.364;2022-12-18T10:04:18;-2.30;79.70
69595;DHT22;56800;52.142;5.364;2022-12-18T10:07:16;-2.30;79.70
69595;DHT22;56800;52.142;5.364;2022-12-18T10:10:16;-2.20;79.70
69595;DHT22;56800;52.142;5.364;2022-12-18T10:14:01;-2.20;79.70
69595;DHT22;56800;52.142;5.364;2022-12-18T10:21:10;-2.00;79.90
69595;DHT22;56800;52.142;5.364;2022-12-18T10:28:36;-1.80;79.80
69595;DHT22;56800;52.142;5.364;2022-12-18T10:32:12;-1.80;79.70
69595;DHT22;56800;52.142;5.364;2022-12-18T10:43:39;-1.60;79.90
69595;DHT22;56800;52.142;5.364;2022-12-18T10:47:02;-1.60;79.90
69595;DHT22;56800;52.142;5.364;2022-12-18T10:50:29;-1.50;79.90
69595;DHT22;56800;52.142;5.364;2022-12-18T10:53:29;-1.50;79.80
69595;DHT22;56800;52.142;5.364;2022-12-18T10:56:20;-1.40;79.90
69595;DHT22;56800;52.142;5.364;2022-12-18T11:00:42;-1.40;79.90
69595;DHT22;56800;52.142;5.364;2022-12-18T11:06:23;-1.20;79.80
69595;DHT22;56800;52.142;5.364;2022-12-18T11:09:25;-1.20;79.80
69595;DHT22;56800;52.142;5.364;2022-12-18T11:13:41;-1.20;79.80
69595;DHT22;56800;52.142;5.364;2022-12-18T11:16:20;-1.10;79.80
69595;DHT22;56800;52.142;5.364;2022-12-18T11:19:53;-1.00;79.90
69595;DHT22;56800;52.142;5.364;2022-12-18T11:23:15;-1.00;79.80
69595;DHT22;56800;52.142;5.364;2022-12-18T11:27:00;-0.90;79.80
69595;DHT22;56800;52.142;5.364;2022-12-18T11:30:35;-0.90;79.80
69595;DHT22;56800;52.142;5.364;2022-12-18T11:42:01;-0.70;79.40
69595;DHT22;56800;52.142;5.364;2022-12-18T11:45:29;-0.60;79.50
69595;DHT22;56800;52.142;5.364;2022-12-18T11:52:20;-0.50;79.50
69595;DHT22;56800;52.142;5.364;2022-12-18T11:55:09;-0.50;79.30
69595;DHT22;56800;52.142;5.364;2022-12-18T12:05:36;-0.30;78.90
69595;DHT22;56800;52.142;5.364;2022-12-18T12:11:15;-0.30;78.50
69595;DHT22;56800;52.142;5.364;2022-12-18T12:20:16;-0.20;78.60
69595;DHT22;56800;52.142;5.364;2022-12-18T12:23:37;-0.10;78.60
69595;DHT22;56800;52.142;5.364;2022-12-18T12:33:13;0.00;78.20
69595;DHT22;56800;52.142;5.364;2022-12-18T12:36:31;0.10;78.10
69595;DHT22;56800;52.142;5.364;2022-12-18T12:39:35;0.10;77.70
69595;DHT22;56800;52.142;5.364;2022-12-18T12:42:08;0.10;77.50
69595;DHT22;56800;52.142;5.364;2022-12-18T12:45:39;0.10;77.50
69595;DHT22;56800;52.142;5.364;2022-12-18T12:48:47;0.20;77.50
69595;DHT22;56800;52.142;5.364;2022-12-18T12:51:53;0.20;77.30
69595;DHT22;56800;52.142;5.364;2022-12-18T12:54:44;0.20;77.10
69595;DHT22;56800;52.142;5.364;2022-12-18T12:57:50;0.20;77.90
69595;DHT22;56800;52.142;5.364;2022-12-18T13:00:46;0.30;77.00
69595;DHT22;56800;52.142;5.364;2022-12-18T13:03:48;0.30;76.90
69595;DHT22;56800;52.142;5.364;2022-12-18T13:09:32;0.30;76.70
69595;DHT22;56800;52.142;5.364;2022-12-18T13:13:16;0.40;76.70
69595;DHT22;56800;52.142;5.364;2022-12-18T13:16:08;0.40;76.50
69595;DHT22;56800;52.142;5.364;2022-12-18T13:18:56;0.40;76.40
69595;DHT22;56800;52.142;5.364;2022-12-18T13:21:33;0.40;76.40
69595;DHT22;56800;52.142;5.364;2022-12-18T13:24:28;0.40;76.40
69595;DHT22;56800;52.142;5.364;2022-12-18T13:34:37;0.50;76.10
69595;DHT22;56800;52.142;5.364;2022-12-18T13:46:20;0.50;76.10
69595;DHT22;56800;52.142;5.364;2022-12-18T13:49:39;0.50;76.10
69595;DHT22;56800;52.142;5.364;2022-12-18T13:52:17;0.50;76.10
69595;DHT22;56800;52.142;5.364;2022-12-18T13:54:52;0.50;76.20
69595;DHT22;56800;52.142;5.364;2022-12-18T13:57:33;0.50;76.10
69595;DHT22;56800;52.142;5.364;2022-12-18T14:02:50;0.50;75.90
69595;DHT22;56800;52.142;5.364;2022-12-18T14:05:31;0.50;75.80
69595;DHT22;56800;52.142;5.364;2022-12-18T14:08:03;0.50;75.80
69595;DHT22;56800;52.142;5.364;2022-12-18T14:10:31;0.50;75.80
69595;DHT22;56800;52.142;5.364;2022-12-18T14:15:47;0.60;75.70
69595;DHT22;56800;52.142;5.364;2022-12-18T14:18:24;0.50;75.70
69595;DHT22;56800;52.142;5.364;2022-12-18T14:20:54;0.60;75.70
69595;DHT22;56800;52.142;5.364;2022-12-18T14:25:52;0.60;75.50
69595;DHT22;56800;52.142;5.364;2022-12-18T14:28:19;0.60;75.40
69595;DHT22;56800;52.142;5.364;2022-12-18T14:30:48;0.60;75.30
69595;DHT22;56800;52.142;5.364;2022-12-18T14:33:20;0.60;75.40
69595;DHT22;56800;52.142;5.364;2022-12-18T14:36:02;0.60;75.20
69595;DHT22;56800;52.142;5.364;2022-12-18T14:38:36;0.60;75.10
69595;DHT22;56800;52.142;5.364;2022-12-18T14:41:10;0.60;75.00
69595;DHT22;56800;52.142;5.364;2022-12-18T14:43:39;0.70;75.10
69595;DHT22;56800;52.142;5.364;2022-12-18T14:46:42;0.70;75.00
69595;DHT22;56800;52.142;5.364;2022-12-18T14:49:26;0.60;74.70
69595;DHT22;56800;52.142;5.364;2022-12-18T14:52:00;0.60;74.60
69595;DHT22;56800;52.142;5.364;2022-12-18T14:54:28;0.60;74.70
69595;DHT22;56800;52.142;5.364;2022-12-18T14:57:02;0.60;74.60
69595;DHT22;56800;52.142;5.364;2022-12-18T14:59:30;0.60;74.70
69595;DHT22;56800;52.142;5.364;2022-12-18T15:04:35;0.60;74.60
69595;DHT22;56800;52.142;5.364;2022-12-18T15:09:40;0.60;74.60
69595;DHT22;56800;52.142;5.364;2022-12-18T15:13:20;0.60;74.50
69595;DHT22;56800;52.142;5.364;2022-12-18T15:18:00;0.60;74.10
69595;DHT22;56800;52.142;5.364;2022-12-18T15:20:29;0.70;74.20
69595;DHT22;56800;52.142;5.364;2022-12-18T15:22:57;0.70;74.30
69595;DHT22;56800;52.142;5.364;2022-12-18T15:25:31;0.60;74.20
69595;DHT22;56800;52.142;5.364;2022-12-18T15:27:59;0.70;74.00
69595;DHT22;56800;52.142;5.364;2022-12-18T15:30:26;0.70;74.30
69595;DHT22;56800;52.142;5.364;2022-12-18T15:33:16;0.70;74.10
69595;DHT22;56800;52.142;5.364;2022-12-18T15:35:43;0.60;74.20
69595;DHT22;56800;52.142;5.364;2022-12-18T15:38:12;0.60;74.20
69595;DHT22;56800;52.142;5.364;2022-12-18T15:40:39;0.60;74.30
69595;DHT22;56800;52.142;5.364;2022-12-18T15:43:08;0.60;74.20
69595;DHT22;56800;52.142;5.364;2022-12-18T15:45:53;0.60;74.20
69595;DHT22;56800;52.142;5.364;2022-12-18T15:48:22;0.60;74.00
69595;DHT22;56800;52.142;5.364;2022-12-18T15:50:53;0.60;74.00
69595;DHT22;56800;52.142;5.364;2022-12-18T15:53:24;0.60;74.10
69595;DHT22;56800;52.142;5.364;2022-12-18T15:55:51;0.60;74.10
69595;DHT22;56800;52.142;5.364;2022-12-18T15:58:37;0.60;74.10
69595;DHT22;56800;52.142;5.364;2022-12-18T16:01:04;0.60;73.90
69595;DHT22;56800;52.142;5.364;2022-12-18T16:03:31;0.60;74.00
69595;DHT22;56800;52.142;5.364;2022-12-18T16:05:57;0.60;73.60
69595;DHT22;56800;52.142;5.364;2022-12-18T16:08:29;0.60;73.30
69595;DHT22;56800;52.142;5.364;2022-12-18T16:10:57;0.60;73.50
69595;DHT22;56800;52.142;5.364;2022-12-18T16:13:24;0.60;73.50
69595;DHT22;56800;52.142;5.364;2022-12-18T16:15:50;0.60;73.20
69595;DHT22;56800;52.142;5.364;2022-12-18T16:18:17;0.60;73.10
69595;DHT22;56800;52.142;5.364;2022-12-18T16:20:44;0.60;73.20
69595;DHT22;56800;52.142;5.364;2022-12-18T16:23:11;0.60;73.10
69595;DHT22;56800;52.142;5.364;2022-12-18T16:25:37;0.60;73.20
69595;DHT22;56800;52.142;5.364;2022-12-18T16:28:04;0.60;72.90
69595;DHT22;56800;52.142;5.364;2022-12-18T16:30:31;0.60;72.90
69595;DHT22;56800;52.142;5.364;2022-12-18T16:33:04;0.60;73.00
69595;DHT22;56800;52.142;5.364;2022-12-18T16:35:33;0.60;73.20
69595;DHT22;56800;52.142;5.364;2022-12-18T16:37:59;0.60;73.00
69595;DHT22;56800;52.142;5.364;2022-12-18T16:40:26;0.60;72.90
69595;DHT22;56800;52.142;5.364;2022-12-18T16:42:53;0.60;72.60
69595;DHT22;56800;52.142;5.364;2022-12-18T16:45:19;0.60;72.50
69595;DHT22;56800;52.142;5.364;2022-12-18T16:47:46;0.60;72.50
69595;DHT22;56800;52.142;5.364;2022-12-18T16:50:13;0.60;73.10
69595;DHT22;56800;52.142;5.364;2022-12-18T16:52:40;0.60;72.20
69595;DHT22;56800;52.142;5.364;2022-12-18T16:55:07;0.70;72.30
69595;DHT22;56800;52.142;5.364;2022-12-18T16:57:34;0.60;72.00
69595;DHT22;56800;52.142;5.364;2022-12-18T17:00:01;0.60;72.10
69595;DHT22;56800;52.142;5.364;2022-12-18T17:02:31;0.70;72.20
69595;DHT22;56800;52.142;5.364;2022-12-18T17:04:59;0.70;71.90
69595;DHT22;56800;52.142;5.364;2022-12-18T17:07:26;0.70;72.00
69595;DHT22;56800;52.142;5.364;2022-12-18T17:09:54;0.70;72.00
69595;DHT22;56800;52.142;5.364;2022-12-18T17:12:21;0.70;72.10
69595;DHT22;56800;52.142;5.364;2022-12-18T17:14:48;0.70;72.00
69595;DHT22;56800;52.142;5.364;2022-12-18T17:17:14;0.70;71.80
69595;DHT22;56800;52.142;5.364;2022-12-18T17:19:50;0.70;71.60
69595;DHT22;56800;52.142;5.364;2022-12-18T17:22:17;0.70;71.30
69595;DHT22;56800;52.142;5.364;2022-12-18T17:24:45;0.70;71.50
69595;DHT22;56800;52.142;5.364;2022-12-18T17:27:12;0.70;71.60
69595;DHT22;56800;52.142;5.364;2022-12-18T17:29:39;0.70;71.40
69595;DHT22;56800;52.142;5.364;2022-12-18T17:32:13;0.70;71.50
69595;DHT22;56800;52.142;5.364;2022-12-18T17:34:40;0.70;71.70
69595;DHT22;56800;52.142;5.364;2022-12-18T17:37:07;0.70;71.70
69595;DHT22;56800;52.142;5.364;2022-12-18T17:39:34;0.70;71.60
69595;DHT22;56800;52.142;5.364;2022-12-18T17:42:00;0.70;71.70
69595;DHT22;56800;52.142;5.364;2022-12-18T17:44:27;0.80;71.70
69595;DHT22;56800;52.142;5.364;2022-12-18T17:46:54;0.80;71.80
69595;DHT22;56800;52.142;5.364;2022-12-18T17:49:21;0.70;71.60
69595;DHT22;56800;52.142;5.364;2022-12-18T17:51:47;0.80;71.30
69595;DHT22;56800;52.142;5.364;2022-12-18T17:54:14;0.80;71.30
69595;DHT22;56800;52.142;5.364;2022-12-18T17:56:41;0.70;71.50
69595;DHT22;56800;52.142;5.364;2022-12-18T17:59:08;0.80;71.40
69595;DHT22;56800;52.142;5.364;2022-12-18T18:01:35;0.80;71.00
69595;DHT22;56800;52.142;5.364;2022-12-18T18:04:09;0.70;71.10
69595;DHT22;56800;52.142;5.364;2022-12-18T18:06:36;0.80;71.30
69595;DHT22;56800;52.142;5.364;2022-12-18T18:09:05;0.70;71.30
69595;DHT22;56800;52.142;5.364;2022-12-18T18:11:40;0.80;71.40
69595;DHT22;56800;52.142;5.364;2022-12-18T18:14:26;0.80;72.10
69595;DHT22;56800;52.142;5.364;2022-12-18T18:16:53;0.80;71.10
69595;DHT22;56800;52.142;5.364;2022-12-18T18:19:23;0.80;71.10
69595;DHT22;56800;52.142;5.364;2022-12-18T18:21:51;0.80;70.90
69595;DHT22;56800;52.142;5.364;2022-12-18T18:24:21;0.80;71.00
69595;DHT22;56800;52.142;5.364;2022-12-18T18:26:49;0.80;71.30
69595;DHT22;56800;52.142;5.364;2022-12-18T18:29:22;0.80;71.40
69595;DHT22;56800;52.142;5.364;2022-12-18T18:31:51;0.80;71.40
69595;DHT22;56800;52.142;5.364;2022-12-18T18:34:24;0.80;71.40
69595;DHT22;56800;52.142;5.364;2022-12-18T18:36:50;0.80;71.20
69595;DHT22;56800;52.142;5.364;2022-12-18T18:39:18;0.90;71.30
69595;DHT22;56800;52.142;5.364;2022-12-18T18:41:45;0.90;71.40
69595;DHT22;56800;52.142;5.364;2022-12-18T18:44:15;0.90;71.40
69595;DHT22;56800;52.142;5.364;2022-12-18T18:46:42;0.90;71.60
69595;DHT22;56800;52.142;5.364;2022-12-18T18:49:09;0.90;71.60
69595;DHT22;56800;52.142;5.364;2022-12-18T18:51:35;0.90;71.30